sensor_id;sensor_type;location;lat;lon;timestamp;P1;P2;P0
47079;PMS5003;33067;49.296;14.470;2024-01-10T00:01:24;126;112;
47079;PMS5003;33067;49.296;14.470;2024-01-10T00:03:50;127;106;
47079;PMS5003;33067;49.296;14.470;2024-01-10T00:06:15;124;112;
47079;PMS5003;33067;49.296;14.470;2024-01-10T00:08:40;109;97;
47079;PMS5003;33067;49.296;14.470;2024-01-10T00:11:06;124;102;
47079;PMS5003;33067;49.296;14.470;2024-01-10T00:13:31;123;109;
47079;PMS5003;33067;49.296;14.470;2024-01-10T00:15:57;118;106;
47079;PMS5003;33067;49.296;14.470;2024-01-10T00:18:22;136;120;
47079;PMS5003;33067;49.296;14.470;2024-01-10T00:20:47;151;127;
47079;PMS5003;33067;49.296;14.470;2024-01-10T00:23:13;142;127;
47079;PMS5003;33067;49.296;14.470;2024-01-10T00:25:38;120;106;
47079;PMS5003;33067;49.296;14.470;2024-01-10T00:28:04;132;118;
47079;PMS5003;33067;49.296;14.470;2024-01-10T00:30:29;142;117;
47079;PMS5003;33067;49.296;14.470;2024-01-10T00:32:54;132;117;
47079;PMS5003;33067;49.296;14.470;2024-01-10T00:35:20;127;114;
47079;PMS5003;33067;49.296;14.470;2024-01-10T00:37:45;144;121;
47079;PMS5003;33067;49.296;14.470;2024-01-10T00:40:10;130;114;
47079;PMS5003;33067;49.296;14.470;2024-01-10T00:42:36;130;111;
47079;PMS5003;33067;49.296;14.470;2024-01-10T00:45:01;127;108;
47079;PMS5003;33067;49.296;14.470;2024-01-10T00:47:27;126;109;
47079;PMS5003;33067;49.296;14.470;2024-01-10T00:49:52;121;105;
47079;PMS5003;33067;49.296;14.470;2024-01-10T00:52:18;126;111;
47079;PMS5003;33067;49.296;14.470;2024-01-10T00:54:43;112;99;
47079;PMS5003;33067;49.296;14.470;2024-01-10T00:57:08;133;109;
47079;PMS5003;33067;49.296;14.470;2024-01-10T00:59:34;121;111;
47079;PMS5003;33067;49.296;14.470;2024-01-10T01:01:59;135;109;
47079;PMS5003;33067;49.296;14.470;2024-01-10T01:04:25;123;115;
47079;PMS5003;33067;49.296;14.470;2024-01-10T01:06:51;120;103;
47079;PMS5003;33067;49.296;14.470;2024-01-10T01:09:16;108;105;
47079;PMS5003;33067;49.296;14.470;2024-01-10T01:11:42;130;111;
47079;PMS5003;33067;49.296;14.470;2024-01-10T01:14:07;123;103;
47079;PMS5003;33067;49.296;14.470;2024-01-10T01:16:32;120;106;
47079;PMS5003;33067;49.296;14.470;2024-01-10T01:18:58;117;100;
47079;PMS5003;33067;49.296;14.470;2024-01-10T01:21:24;124;108;
47079;PMS5003;33067;49.296;14.470;2024-01-10T01:23:49;108;99;
47079;PMS5003;33067;49.296;14.470;2024-01-10T01:26:15;118;99;
47079;PMS5003;33067;49.296;14.470;2024-01-10T01:28:41;121;105;
47079;PMS5003;33067;49.296;14.470;2024-01-10T01:31:06;127;105;
47079;PMS5003;33067;49.296;14.470;2024-01-10T01:33:32;112;99;
47079;PMS5003;33067;49.296;14.470;2024-01-10T01:35:57;115;102;
47079;PMS5003;33067;49.296;14.470;2024-01-10T01:38:22;123;112;
47079;PMS5003;33067;49.296;14.470;2024-01-10T01:40:48;123;100;
47079;PMS5003;33067;49.296;14.470;2024-01-10T01:43:19;105;100;
47079;PMS5003;33067;49.296;14.470;2024-01-10T01:45:39;129;99;
47079;PMS5003;33067;49.296;14.470;2024-01-10T01:48:05;103;94;
47079;PMS5003;33067;49.296;14.470;2024-01-10T01:50:30;117;99;
47079;PMS5003;33067;49.296;14.470;2024-01-10T01:52:55;105;94;
47079;PMS5003;33067;49.296;14.470;2024-01-10T01:55:20;120;105;
47079;PMS5003;33067;49.296;14.470;2024-01-10T01:57:46;111;94;
47079;PMS5003;33067;49.296;14.470;2024-01-10T02:00:11;105;93;
47079;PMS5003;33067;49.296;14.470;2024-01-10T02:02:36;120;102;
47079;PMS5003;33067;49.296;14.470;2024-01-10T02:05:02;111;100;
47079;PMS5003;33067;49.296;14.470;2024-01-10T02:07:27;138;108;
47079;PMS5003;33067;49.296;14.470;2024-01-10T02:09:52;109;100;
47079;PMS5003;33067;49.296;14.470;2024-01-10T02:12:18;120;106;
47079;PMS5003;33067;49.296;14.470;2024-01-10T02:14:43;112;93;
47079;PMS5003;33067;49.296;14.470;2024-01-10T02:17:08;117;96;
47079;PMS5003;33067;49.296;14.470;2024-01-10T02:19:34;108;94;
47079;PMS5003;33067;49.296;14.470;2024-01-10T02:21:59;120;111;
47079;PMS5003;33067;49.296;14.470;2024-01-10T02:24:25;118;97;
47079;PMS5003;33067;49.296;14.470;2024-01-10T02:26:50;108;93;
47079;PMS5003;33067;49.296;14.470;2024-01-10T02:29:16;100;88;
47079;PMS5003;33067;49.296;14.470;2024-01-10T02:31:41;117;108;
47079;PMS5003;33067;49.296;14.470;2024-01-10T02:34:06;121;102;
47079;PMS5003;33067;49.296;14.470;2024-01-10T02:36:32;123;108;
47079;PMS5003;33067;49.296;14.470;2024-01-10T02:38:57;118;100;
47079;PMS5003;33067;49.296;14.470;2024-01-10T02:41:23;127;112;
47079;PMS5003;33067;49.296;14.470;2024-01-10T02:43:48;124;103;
47079;PMS5003;33067;49.296;14.470;2024-01-10T02:46:14;109;100;
47079;PMS5003;33067;49.296;14.470;2024-01-10T02:48:39;118;106;
47079;PMS5003;33067;49.296;14.470;2024-01-10T02:51:04;120;106;
47079;PMS5003;33067;49.296;14.470;2024-01-10T02:53:30;117;99;
47079;PMS5003;33067;49.296;14.470;2024-01-10T02:55:55;108;97;
47079;PMS5003;33067;49.296;14.470;2024-01-10T02:58:21;120;103;
47079;PMS5003;33067;49.296;14.470;2024-01-10T03:00:46;108;100;
47079;PMS5003;33067;49.296;14.470;2024-01-10T03:03:12;130;111;
47079;PMS5003;33067;49.296;14.470;2024-01-10T03:05:38;118;99;
47079;PMS5003;33067;49.296;14.470;2024-01-10T03:08:04;106;103;
47079;PMS5003;33067;49.296;14.470;2024-01-10T03:13:00;120;103;
47079;PMS5003;33067;49.296;14.470;2024-01-10T03:15:25;103;94;
47079;PMS5003;33067;49.296;14.470;2024-01-10T03:17:50;111;99;
47079;PMS5003;33067;49.296;14.470;2024-01-10T03:20:16;117;102;
47079;PMS5003;33067;49.296;14.470;2024-01-10T03:22:41;114;102;
47079;PMS5003;33067;49.296;14.470;2024-01-10T03:25:07;126;108;
47079;PMS5003;33067;49.296;14.470;2024-01-10T03:27:33;112;105;
47079;PMS5003;33067;49.296;14.470;2024-01-10T03:29:58;115;103;
47079;PMS5003;33067;49.296;14.470;2024-01-10T03:32:23;121;100;
47079;PMS5003;33067;49.296;14.470;2024-01-10T03:34:48;112;96;
47079;PMS5003;33067;49.296;14.470;2024-01-10T03:37:14;109;97;
47079;PMS5003;33067;49.296;14.470;2024-01-10T03:39:39;106;99;
47079;PMS5003;33067;49.296;14.470;2024-01-10T03:42:05;100;93;
47079;PMS5003;33067;49.296;14.470;2024-01-10T03:44:30;115;100;
47079;PMS5003;33067;49.296;14.470;2024-01-10T03:46:55;118;93;
47079;PMS5003;33067;49.296;14.470;2024-01-10T03:49:21;106;97;
47079;PMS5003;33067;49.296;14.470;2024-01-10T03:51:47;105;93;
47079;PMS5003;33067;49.296;14.470;2024-01-10T03:54:12;118;108;
47079;PMS5003;33067;49.296;14.470;2024-01-10T03:56:38;115;97;
47079;PMS5003;33067;49.296;14.470;2024-01-10T03:59:03;106;100;
47079;PMS5003;33067;49.296;14.470;2024-01-10T04:01:28;120;108;
47079;PMS5003;33067;49.296;14.470;2024-01-10T04:03:54;123;105;
47079;PMS5003;33067;49.296;14.470;2024-01-10T04:06:20;124;109;
47079;PMS5003;33067;49.296;14.470;2024-01-10T04:08:45;126;108;
47079;PMS5003;33067;49.296;14.470;2024-01-10T04:11:11;126;109;
47079;PMS5003;33067;49.296;14.470;2024-01-10T04:13:37;111;99;
47079;PMS5003;33067;49.296;14.470;2024-01-10T04:16:03;123;105;
47079;PMS5003;33067;49.296;14.470;2024-01-10T04:18:28;111;103;
47079;PMS5003;33067;49.296;14.470;2024-01-10T04:20:54;105;93;
47079;PMS5003;33067;49.296;14.470;2024-01-10T04:23:19;123;102;
47079;PMS5003;33067;49.296;14.470;2024-01-10T04:25:45;126;100;
47079;PMS5003;33067;49.296;14.470;2024-01-10T04:28:10;109;96;
47079;PMS5003;33067;49.296;14.470;2024-01-10T04:30:36;133;114;
47079;PMS5003;33067;49.296;14.470;2024-01-10T04:33:01;135;105;
47079;PMS5003;33067;49.296;14.470;2024-01-10T04:35:27;120;99;
47079;PMS5003;33067;49.296;14.470;2024-01-10T04:37:52;126;109;
47079;PMS5003;33067;49.296;14.470;2024-01-10T04:40:17;124;106;
47079;PMS5003;33067;49.296;14.470;2024-01-10T04:42:43;112;105;
47079;PMS5003;33067;49.296;14.470;2024-01-10T04:45:09;120;105;
47079;PMS5003;33067;49.296;14.470;2024-01-10T04:47:34;118;108;
47079;PMS5003;33067;49.296;14.470;2024-01-10T04:49:59;121;100;
47079;PMS5003;33067;49.296;14.470;2024-01-10T04:52:24;112;99;
47079;PMS5003;33067;49.296;14.470;2024-01-10T04:54:50;120;106;
47079;PMS5003;33067;49.296;14.470;2024-01-10T04:57:16;105;93;
47079;PMS5003;33067;49.296;14.470;2024-01-10T04:59:42;109;99;
47079;PMS5003;33067;49.296;14.470;2024-01-10T05:02:07;117;102;
47079;PMS5003;33067;49.296;14.470;2024-01-10T05:04:33;123;102;
47079;PMS5003;33067;49.296;14.470;2024-01-10T05:06:59;112;102;
47079;PMS5003;33067;49.296;14.470;2024-01-10T05:09:24;111;100;
47079;PMS5003;33067;49.296;14.470;2024-01-10T05:11:50;121;103;
47079;PMS5003;33067;49.296;14.470;2024-01-10T05:14:16;124;108;
47079;PMS5003;33067;49.296;14.470;2024-01-10T05:16:41;124;97;
47079;PMS5003;33067;49.296;14.470;2024-01-10T05:19:06;123;106;
47079;PMS5003;33067;49.296;14.470;2024-01-10T05:21:32;112;99;
47079;PMS5003;33067;49.296;14.470;2024-01-10T05:23:57;121;102;
47079;PMS5003;33067;49.296;14.470;2024-01-10T05:26:22;124;105;
47079;PMS5003;33067;49.296;14.470;2024-01-10T05:28:48;124;105;
47079;PMS5003;33067;49.296;14.470;2024-01-10T05:31:13;124;108;
47079;PMS5003;33067;49.296;14.470;2024-01-10T05:33:38;124;103;
47079;PMS5003;33067;49.296;14.470;2024-01-10T05:36:04;127;112;
47079;PMS5003;33067;49.296;14.470;2024-01-10T05:38:29;115;96;
47079;PMS5003;33067;49.296;14.470;2024-01-10T05:40:55;118;103;
47079;PMS5003;33067;49.296;14.470;2024-01-10T05:43:20;142;115;
47079;PMS5003;33067;49.296;14.470;2024-01-10T05:45:46;117;103;
47079;PMS5003;33067;49.296;14.470;2024-01-10T05:48:11;111;100;
47079;PMS5003;33067;49.296;14.470;2024-01-10T05:50:37;109;99;
47079;PMS5003;33067;49.296;14.470;2024-01-10T05:53:02;120;106;
47079;PMS5003;33067;49.296;14.470;2024-01-10T05:55:27;112;102;
47079;PMS5003;33067;49.296;14.470;2024-01-10T05:57:53;124;112;
47079;PMS5003;33067;49.296;14.470;2024-01-10T06:00:18;130;112;
47079;PMS5003;33067;49.296;14.470;2024-01-10T06:02:43;144;120;
47079;PMS5003;33067;49.296;14.470;2024-01-10T06:05:09;154;136;
47079;PMS5003;33067;49.296;14.470;2024-01-10T06:07:34;171;144;
47079;PMS5003;33067;49.296;14.470;2024-01-10T06:10:00;147;130;
47079;PMS5003;33067;49.296;14.470;2024-01-10T06:12:25;129;115;
47079;PMS5003;33067;49.296;14.470;2024-01-10T06:14:51;133;115;
47079;PMS5003;33067;49.296;14.470;2024-01-10T06:17:16;120;109;
47079;PMS5003;33067;49.296;14.470;2024-01-10T06:19:41;123;97;
47079;PMS5003;33067;49.296;14.470;2024-01-10T06:22:06;121;103;
47079;PMS5003;33067;49.296;14.470;2024-01-10T06:24:32;114;100;
47079;PMS5003;33067;49.296;14.470;2024-01-10T06:26:57;108;93;
47079;PMS5003;33067;49.296;14.470;2024-01-10T06:29:23;124;102;
47079;PMS5003;33067;49.296;14.470;2024-01-10T06:31:48;123;106;
47079;PMS5003;33067;49.296;14.470;2024-01-10T06:34:14;120;103;
47079;PMS5003;33067;49.296;14.470;2024-01-10T06:36:40;106;91;
47079;PMS5003;33067;49.296;14.470;2024-01-10T06:39:05;162;144;
47079;PMS5003;33067;49.296;14.470;2024-01-10T06:41:31;162;145;
47079;PMS5003;33067;49.296;14.470;2024-01-10T06:43:56;142;129;
47079;PMS5003;33067;49.296;14.470;2024-01-10T06:46:22;133;118;
47079;PMS5003;33067;49.296;14.470;2024-01-10T06:48:47;129;114;
47079;PMS5003;33067;49.296;14.470;2024-01-10T06:51:12;126;120;
47079;PMS5003;33067;49.296;14.470;2024-01-10T06:53:37;150;133;
47079;PMS5003;33067;49.296;14.470;2024-01-10T06:56:03;163;135;
47079;PMS5003;33067;49.296;14.470;2024-01-10T06:58:28;136;115;
47079;PMS5003;33067;49.296;14.470;2024-01-10T07:00:53;127;106;
47079;PMS5003;33067;49.296;14.470;2024-01-10T07:03:19;132;103;
47079;PMS5003;33067;49.296;14.470;2024-01-10T07:05:45;118;100;
47079;PMS5003;33067;49.296;14.470;2024-01-10T07:08:11;129;117;
47079;PMS5003;33067;49.296;14.470;2024-01-10T07:10:36;142;126;
47079;PMS5003;33067;49.296;14.470;2024-01-10T07:13:02;150;127;
47079;PMS5003;33067;49.296;14.470;2024-01-10T07:15:27;205;172;
47079;PMS5003;33067;49.296;14.470;2024-01-10T07:17:53;198;171;
47079;PMS5003;33067;49.296;14.470;2024-01-10T07:20:18;160;136;
47079;PMS5003;33067;49.296;14.470;2024-01-10T07:22:43;198;150;
47079;PMS5003;33067;49.296;14.470;2024-01-10T07:25:09;177;153;
47079;PMS5003;33067;49.296;14.470;2024-01-10T07:27:34;166;136;
47079;PMS5003;33067;49.296;14.470;2024-01-10T07:30:00;150;130;
47079;PMS5003;33067;49.296;14.470;2024-01-10T07:32:25;142;123;
47079;PMS5003;33067;49.296;14.470;2024-01-10T07:34:51;138;120;
47079;PMS5003;33067;49.296;14.470;2024-01-10T07:37:17;166;141;
47079;PMS5003;33067;49.296;14.470;2024-01-10T07:39:43;174;145;
47079;PMS5003;33067;49.296;14.470;2024-01-10T07:42:08;145;124;
47079;PMS5003;33067;49.296;14.470;2024-01-10T07:44:34;130;114;
47079;PMS5003;33067;49.296;14.470;2024-01-10T07:46:59;129;115;
47079;PMS5003;33067;49.296;14.470;2024-01-10T07:49:24;135;111;
47079;PMS5003;33067;49.296;14.470;2024-01-10T07:51:50;129;106;
47079;PMS5003;33067;49.296;14.470;2024-01-10T07:54:16;136;111;
47079;PMS5003;33067;49.296;14.470;2024-01-10T07:56:41;124;111;
47079;PMS5003;33067;49.296;14.470;2024-01-10T07:59:06;138;123;
47079;PMS5003;33067;49.296;14.470;2024-01-10T08:01:32;118;100;
47079;PMS5003;33067;49.296;14.470;2024-01-10T08:03:58;123;105;
47079;PMS5003;33067;49.296;14.470;2024-01-10T08:06:23;117;102;
47079;PMS5003;33067;49.296;14.470;2024-01-10T08:08:48;115;108;
47079;PMS5003;33067;49.296;14.470;2024-01-10T08:11:13;120;103;
47079;PMS5003;33067;49.296;14.470;2024-01-10T08:13:39;118;108;
47079;PMS5003;33067;49.296;14.470;2024-01-10T08:16:05;117;114;
47079;PMS5003;33067;49.296;14.470;2024-01-10T08:18:31;120;105;
47079;PMS5003;33067;49.296;14.470;2024-01-10T08:20:56;127;112;
47079;PMS5003;33067;49.296;14.470;2024-01-10T08:23:21;153;126;
47079;PMS5003;33067;49.296;14.470;2024-01-10T08:25:47;145;127;
47079;PMS5003;33067;49.296;14.470;2024-01-10T08:28:13;109;100;
47079;PMS5003;33067;49.296;14.470;2024-01-10T08:30:38;141;120;
47079;PMS5003;33067;49.296;14.470;2024-01-10T08:33:04;237;201;
47079;PMS5003;33067;49.296;14.470;2024-01-10T08:35:29;268;223;
47079;PMS5003;33067;49.296;14.470;2024-01-10T08:37:55;265;231;
47079;PMS5003;33067;49.296;14.470;2024-01-10T08:40:21;192;168;
47079;PMS5003;33067;49.296;14.470;2024-01-10T08:42:46;168;145;
47079;PMS5003;33067;49.296;14.470;2024-01-10T08:45:12;142;117;
47079;PMS5003;33067;49.296;14.470;2024-01-10T08:47:37;147;132;
47079;PMS5003;33067;49.296;14.470;2024-01-10T08:50:03;127;114;
47079;PMS5003;33067;49.296;14.470;2024-01-10T08:52:28;141;120;
47079;PMS5003;33067;49.296;14.470;2024-01-10T08:54:53;124;108;
47079;PMS5003;33067;49.296;14.470;2024-01-10T08:57:18;123;106;
47079;PMS5003;33067;49.296;14.470;2024-01-10T08:59:45;123;103;
47079;PMS5003;33067;49.296;14.470;2024-01-10T09:02:10;108;100;
47079;PMS5003;33067;49.296;14.470;2024-01-10T09:04:36;121;105;
47079;PMS5003;33067;49.296;14.470;2024-01-10T09:07:01;120;99;
47079;PMS5003;33067;49.296;14.470;2024-01-10T09:09:26;123;106;
47079;PMS5003;33067;49.296;14.470;2024-01-10T09:11:52;126;112;
47079;PMS5003;33067;49.296;14.470;2024-01-10T09:14:17;145;124;
47079;PMS5003;33067;49.296;14.470;2024-01-10T09:16:43;124;112;
47079;PMS5003;33067;49.296;14.470;2024-01-10T09:19:09;135;118;
47079;PMS5003;33067;49.296;14.470;2024-01-10T09:21:34;129;118;
47079;PMS5003;33067;49.296;14.470;2024-01-10T09:24:00;126;109;
47079;PMS5003;33067;49.296;14.470;2024-01-10T09:26:25;123;112;
47079;PMS5003;33067;49.296;14.470;2024-01-10T09:28:50;133;114;
47079;PMS5003;33067;49.296;14.470;2024-01-10T09:31:15;144;120;
47079;PMS5003;33067;49.296;14.470;2024-01-10T09:33:41;120;109;
47079;PMS5003;33067;49.296;14.470;2024-01-10T09:36:06;135;106;
47079;PMS5003;33067;49.296;14.470;2024-01-10T09:38:34;120;106;
47079;PMS5003;33067;49.296;14.470;2024-01-10T09:40:59;129;115;
47079;PMS5003;33067;49.296;14.470;2024-01-10T09:43:22;133;103;
47079;PMS5003;33067;49.296;14.470;2024-01-10T09:45:48;115;99;
47079;PMS5003;33067;49.296;14.470;2024-01-10T09:48:14;156;132;
47079;PMS5003;33067;49.296;14.470;2024-01-10T09:50:39;117;108;
47079;PMS5003;33067;49.296;14.470;2024-01-10T09:53:05;132;111;
47079;PMS5003;33067;49.296;14.470;2024-01-10T09:55:30;133;121;
47079;PMS5003;33067;49.296;14.470;2024-01-10T09:57:56;148;130;
47079;PMS5003;33067;49.296;14.470;2024-01-10T10:00:21;138;123;
47079;PMS5003;33067;49.296;14.470;2024-01-10T10:02:46;149;138;
47079;PMS5003;33067;49.296;14.470;2024-01-10T10:05:13;145;121;
47079;PMS5003;33067;49.296;14.470;2024-01-10T10:07:44;147;132;
47079;PMS5003;33067;49.296;14.470;2024-01-10T10:10:03;130;112;
47079;PMS5003;33067;49.296;14.470;2024-01-10T10:14:54;129;110;
47079;PMS5003;33067;49.296;14.470;2024-01-10T10:17:20;113;95;
47079;PMS5003;33067;49.296;14.470;2024-01-10T10:19:45;117;103;
47079;PMS5003;33067;49.296;14.470;2024-01-10T10:22:10;114;98;
47079;PMS5003;33067;49.296;14.470;2024-01-10T10:24:37;106;94;
47079;PMS5003;33067;49.296;14.470;2024-01-10T10:27:01;113;93;
47079;PMS5003;33067;49.296;14.470;2024-01-10T10:29:26;99;87;
47079;PMS5003;33067;49.296;14.470;2024-01-10T10:31:52;85;83;
47079;PMS5003;33067;49.296;14.470;2024-01-10T10:34:20;94;85;
47079;PMS5003;33067;49.296;14.470;2024-01-10T10:36:42;88;79;
47079;PMS5003;33067;49.296;14.470;2024-01-10T10:39:08;87;76;
47079;PMS5003;33067;49.296;14.470;2024-01-10T10:41:33;92;80;
47079;PMS5003;33067;49.296;14.470;2024-01-10T10:43:58;103;82;
47079;PMS5003;33067;49.296;14.470;2024-01-10T10:46:25;74;70;
47079;PMS5003;33067;49.296;14.470;2024-01-10T10:48:49;87;78;
47079;PMS5003;33067;49.296;14.470;2024-01-10T10:51:15;90;82;
47079;PMS5003;33067;49.296;14.470;2024-01-10T10:53:42;93;75;
47079;PMS5003;33067;49.296;14.470;2024-01-10T10:56:06;80;69;
47079;PMS5003;33067;49.296;14.470;2024-01-10T10:58:32;74;67;
47079;PMS5003;33067;49.296;14.470;2024-01-10T11:00:57;83;71;
47079;PMS5003;33067;49.296;14.470;2024-01-10T11:03:22;81;68;
47079;PMS5003;33067;49.296;14.470;2024-01-10T11:05:47;81;75;
47079;PMS5003;33067;49.296;14.470;2024-01-10T11:08:14;64;64;
47079;PMS5003;33067;49.296;14.470;2024-01-10T11:10:39;72;65;
47079;PMS5003;33067;49.296;14.470;2024-01-10T11:13:09;82;74;
47079;PMS5003;33067;49.296;14.470;2024-01-10T11:15:34;87;77;
47079;PMS5003;33067;49.296;14.470;2024-01-10T11:18:00;79;74;
47079;PMS5003;33067;49.296;14.470;2024-01-10T11:20:23;95;83;
47079;PMS5003;33067;49.296;14.470;2024-01-10T11:22:58;87;72;
47079;PMS5003;33067;49.296;14.470;2024-01-10T11:25:10;88;70;
47079;PMS5003;33067;49.296;14.470;2024-01-10T11:27:36;83;71;
47079;PMS5003;33067;49.296;14.470;2024-01-10T11:30:01;81;71;
47079;PMS5003;33067;49.296;14.470;2024-01-10T11:32:26;75;64;
47079;PMS5003;33067;49.296;14.470;2024-01-10T11:34:54;75;65;
47079;PMS5003;33067;49.296;14.470;2024-01-10T11:37:17;89;75;
47079;PMS5003;33067;49.296;14.470;2024-01-10T11:39:43;86;69;
47079;PMS5003;33067;49.296;14.470;2024-01-10T11:42:08;84;72;
47079;PMS5003;33067;49.296;14.470;2024-01-10T11:44:34;88;73;
47079;PMS5003;33067;49.296;14.470;2024-01-10T11:46:59;79;72;
47079;PMS5003;33067;49.296;14.470;2024-01-10T11:49:25;90;79;
47079;PMS5003;33067;49.296;14.470;2024-01-10T11:51:52;95;71;
47079;PMS5003;33067;49.296;14.470;2024-01-10T11:56:42;70;66;
47079;PMS5003;33067;49.296;14.470;2024-01-10T11:59:07;85;75;
47079;PMS5003;33067;49.296;14.470;2024-01-10T12:01:32;79;71;
47079;PMS5003;33067;49.296;14.470;2024-01-10T12:03:58;73;64;
47079;PMS5003;33067;49.296;14.470;2024-01-10T12:06:23;68;63;
47079;PMS5003;33067;49.296;14.470;2024-01-10T12:08:48;76;64;
47079;PMS5003;33067;49.296;14.470;2024-01-10T12:11:14;65;55;
47079;PMS5003;33067;49.296;14.470;2024-01-10T12:13:39;72;62;
47079;PMS5003;33067;49.296;14.470;2024-01-10T12:16:05;87;70;
47079;PMS5003;33067;49.296;14.470;2024-01-10T12:18:30;89;76;
47079;PMS5003;33067;49.296;14.470;2024-01-10T12:20:56;78;69;
47079;PMS5003;33067;49.296;14.470;2024-01-10T12:23:21;89;77;
47079;PMS5003;33067;49.296;14.470;2024-01-10T12:25:48;73;60;
47079;PMS5003;33067;49.296;14.470;2024-01-10T12:28:15;70;67;
47079;PMS5003;33067;49.296;14.470;2024-01-10T12:30:38;68;63;
47079;PMS5003;33067;49.296;14.470;2024-01-10T12:33:04;88;74;
47079;PMS5003;33067;49.296;14.470;2024-01-10T12:35:29;89;73;
47079;PMS5003;33067;49.296;14.470;2024-01-10T12:37:55;81;76;
47079;PMS5003;33067;49.296;14.470;2024-01-10T12:40:20;88;74;
47079;PMS5003;33067;49.296;14.470;2024-01-10T12:42:45;84;74;
47079;PMS5003;33067;49.296;14.470;2024-01-10T12:47:36;88;80;
47079;PMS5003;33067;49.296;14.470;2024-01-10T12:50:01;73;72;
47079;PMS5003;33067;49.296;14.470;2024-01-10T12:52:27;79;70;
47079;PMS5003;33067;49.296;14.470;2024-01-10T12:54:52;60;56;
47079;PMS5003;33067;49.296;14.470;2024-01-10T12:57:18;79;66;
47079;PMS5003;33067;49.296;14.470;2024-01-10T12:59:43;74;67;
47079;PMS5003;33067;49.296;14.470;2024-01-10T13:02:09;79;67;
47079;PMS5003;33067;49.296;14.470;2024-01-10T13:04:35;108;92;
47079;PMS5003;33067;49.296;14.470;2024-01-10T13:07:00;93;81;
47079;PMS5003;33067;49.296;14.470;2024-01-10T13:09:25;100;88;
47079;PMS5003;33067;49.296;14.470;2024-01-10T13:11:50;83;81;
47079;PMS5003;33067;49.296;14.470;2024-01-10T13:14:16;77;73;
47079;PMS5003;33067;49.296;14.470;2024-01-10T13:16:41;110;90;
47079;PMS5003;33067;49.296;14.470;2024-01-10T13:19:07;92;78;
47079;PMS5003;33067;49.296;14.470;2024-01-10T13:21:33;110;94;
47079;PMS5003;33067;49.296;14.470;2024-01-10T13:23:58;113;100;
47079;PMS5003;33067;49.296;14.470;2024-01-10T13:26:23;118;95;
47079;PMS5003;33067;49.296;14.470;2024-01-10T13:28:49;147;130;
47079;PMS5003;33067;49.296;14.470;2024-01-10T13:31:15;108;92;
47079;PMS5003;33067;49.296;14.470;2024-01-10T13:33:41;109;102;
47079;PMS5003;33067;49.296;14.470;2024-01-10T13:36:06;156;127;
47079;PMS5003;33067;49.296;14.470;2024-01-10T13:38:31;129;121;
47079;PMS5003;33067;49.296;14.470;2024-01-10T13:40:57;138;113;
47079;PMS5003;33067;49.296;14.470;2024-01-10T13:43:22;106;95;
47079;PMS5003;33067;49.296;14.470;2024-01-10T13:45:48;100;85;
47079;PMS5003;33067;49.296;14.470;2024-01-10T13:48:13;99;94;
47079;PMS5003;33067;49.296;14.470;2024-01-10T13:50:38;345;292;
47079;PMS5003;33067;49.296;14.470;2024-01-10T13:53:03;180;159;
47079;PMS5003;33067;49.296;14.470;2024-01-10T13:55:29;114;96;
47079;PMS5003;33067;49.296;14.470;2024-01-10T13:57:55;121;102;
47079;PMS5003;33067;49.296;14.470;2024-01-10T14:00:20;114;94;
47079;PMS5003;33067;49.296;14.470;2024-01-10T14:02:46;107;95;
47079;PMS5003;33067;49.296;14.470;2024-01-10T14:05:11;109;92;
47079;PMS5003;33067;49.296;14.470;2024-01-10T14:07:36;114;106;
47079;PMS5003;33067;49.296;14.470;2024-01-10T14:10:02;99;91;
47079;PMS5003;33067;49.296;14.470;2024-01-10T14:12:27;107;91;
47079;PMS5003;33067;49.296;14.470;2024-01-10T14:14:53;127;114;
47079;PMS5003;33067;49.296;14.470;2024-01-10T14:17:18;118;109;
47079;PMS5003;33067;49.296;14.470;2024-01-10T14:19:43;117;109;
47079;PMS5003;33067;49.296;14.470;2024-01-10T14:22:09;120;108;
47079;PMS5003;33067;49.296;14.470;2024-01-10T14:24:34;120;103;
47079;PMS5003;33067;49.296;14.470;2024-01-10T14:27:00;105;93;
47079;PMS5003;33067;49.296;14.470;2024-01-10T14:29:26;87;74;
47079;PMS5003;33067;49.296;14.470;2024-01-10T14:31:51;90;78;
47079;PMS5003;33067;49.296;14.470;2024-01-10T14:34:17;89;81;
47079;PMS5003;33067;49.296;14.470;2024-01-10T14:36:42;99;89;
47079;PMS5003;33067;49.296;14.470;2024-01-10T14:39:08;100;93;
47079;PMS5003;33067;49.296;14.470;2024-01-10T14:41:33;108;97;
47079;PMS5003;33067;49.296;14.470;2024-01-10T14:43:59;109;93;
47079;PMS5003;33067;49.296;14.470;2024-01-10T14:46:25;89;77;
47079;PMS5003;33067;49.296;14.470;2024-01-10T14:48:51;97;81;
47079;PMS5003;33067;49.296;14.470;2024-01-10T14:51:16;92;85;
47079;PMS5003;33067;49.296;14.470;2024-01-10T14:53:41;99;88;
47079;PMS5003;33067;49.296;14.470;2024-01-10T14:56:07;83;74;
47079;PMS5003;33067;49.296;14.470;2024-01-10T14:58:32;99;93;
47079;PMS5003;33067;49.296;14.470;2024-01-10T15:00:58;103;92;
47079;PMS5003;33067;49.296;14.470;2024-01-10T15:03:24;111;90;
47079;PMS5003;33067;49.296;14.470;2024-01-10T15:05:49;111;97;
47079;PMS5003;33067;49.296;14.470;2024-01-10T15:08:15;108;94;
47079;PMS5003;33067;49.296;14.470;2024-01-10T15:10:40;110;95;
47079;PMS5003;33067;49.296;14.470;2024-01-10T15:13:05;109;100;
47079;PMS5003;33067;49.296;14.470;2024-01-10T15:15:31;113;95;
47079;PMS5003;33067;49.296;14.470;2024-01-10T15:17:56;101;93;
47079;PMS5003;33067;49.296;14.470;2024-01-10T15:20:22;112;95;
47079;PMS5003;33067;49.296;14.470;2024-01-10T15:22:47;120;110;
47079;PMS5003;33067;49.296;14.470;2024-01-10T15:25:12;127;111;
47079;PMS5003;33067;49.296;14.470;2024-01-10T15:27:38;108;98;
47079;PMS5003;33067;49.296;14.470;2024-01-10T15:30:03;100;95;
47079;PMS5003;33067;49.296;14.470;2024-01-10T15:32:28;112;104;
47079;PMS5003;33067;49.296;14.470;2024-01-10T15:34:53;117;103;
47079;PMS5003;33067;49.296;14.470;2024-01-10T15:37:18;115;102;